sensor_id;sensor_type;location;lat;lon;timestamp;pressure;altitude;pressure_sealevel;temperature;humidity
50011;BME280;35899;50.352;19.390;2023-02-19T00:01:16;97423.52;;;4.93;100.00
50011;BME280;35899;50.352;19.390;2023-02-19T00:03:47;97419.77;;;4.92;100.00
50011;BME280;35899;50.352;19.390;2023-02-19T00:06:16;97420.58;;;4.93;100.00
50011;BME280;35899;50.352;19.390;2023-02-19T00:08:43;97414.77;;;4.93;100.00
50011;BME280;35899;50.352;19.390;2023-02-19T00:11:15;97417.00;;;4.89;100.00
50011;BME280;35899;50.352;19.390;2023-02-19T00:13:45;97415.87;;;4.88;100.00
50011;BME280;35899;50.352;19.390;2023-02-19T00:16:14;97417.50;;;4.86;100.00
50011;BME280;35899;50.352;19.390;2023-02-19T00:18:42;97421.80;;;4.86;100.00
50011;BME280;35899;50.352;19.390;2023-02-19T00:21:11;97418.73;;;4.86;100.00
50011;BME280;35899;50.352;19.390;2023-02-19T00:23:39;97410.23;;;4.85;100.00
50011;BME280;35899;50.352;19.390;2023-02-19T00:26:08;97404.11;;;4.84;100.00
50011;BME280;35899;50.352;19.390;2023-02-19T00:28:45;97407.36;;;4.84;100.00
50011;BME280;35899;50.352;19.390;2023-02-19T00:31:18;97407.73;;;4.83;100.00
50011;BME280;35899;50.352;19.390;2023-02-19T00:33:46;97410.02;;;4.82;100.00
50011;BME280;35899;50.352;19.390;2023-02-19T00:36:15;97408.01;;;4.82;100.00
50011;BME280;35899;50.352;19.390;2023-02-19T00:38:43;97409.58;;;4.81;100.00
50011;BME280;35899;50.352;19.390;2023-02-19T00:41:12;97406.75;;;4.80;100.00
50011;BME280;35899;50.352;19.390;2023-02-19T00:43:40;97404.62;;;4.81;100.00
50011;BME280;35899;50.352;19.390;2023-02-19T00:46:08;97402.73;;;4.81;100.00
50011;BME280;35899;50.352;19.390;2023-02-19T00:48:35;97400.65;;;4.81;100.00
50011;BME280;35899;50.352;19.390;2023-02-19T00:51:04;97399.33;;;4.80;100.00
50011;BME280;35899;50.352;19.390;2023-02-19T00:53:31;97392.70;;;4.80;100.00
50011;BME280;35899;50.352;19.390;2023-02-19T00:55:59;97394.08;;;4.79;100.00
50011;BME280;35899;50.352;19.390;2023-02-19T00:58:27;97392.79;;;4.78;100.00
50011;BME280;35899;50.352;19.390;2023-02-19T01:00:55;97390.38;;;4.78;100.00
50011;BME280;35899;50.352;19.390;2023-02-19T01:03:23;97391.49;;;4.79;100.00
50011;BME280;35899;50.352;19.390;2023-02-19T01:05:51;97386.65;;;4.80;100.00
50011;BME280;35899;50.352;19.390;2023-02-19T01:08:19;97384.25;;;4.80;100.00
50011;BME280;35899;50.352;19.390;2023-02-19T01:10:47;97381.53;;;4.80;100.00
50011;BME280;35899;50.352;19.390;2023-02-19T01:13:15;97381.36;;;4.80;100.00
50011;BME280;35899;50.352;19.390;2023-02-19T01:15:43;97383.30;;;4.79;100.00
50011;BME280;35899;50.352;19.390;2023-02-19T01:18:11;97384.36;;;4.78;100.00
50011;BME280;35899;50.352;19.390;2023-02-19T01:20:39;97375.53;;;4.77;100.00
50011;BME280;35899;50.352;19.390;2023-02-19T01:23:08;97376.52;;;4.75;100.00
50011;BME280;35899;50.352;19.390;2023-02-19T01:25:38;97379.50;;;4.73;100.00
50011;BME280;35899;50.352;19.390;2023-02-19T01:28:06;97378.34;;;4.73;100.00
50011;BME280;35899;50.352;19.390;2023-02-19T01:30:34;97376.66;;;4.72;100.00
50011;BME280;35899;50.352;19.390;2023-02-19T01:33:03;97376.09;;;4.70;100.00
50011;BME280;35899;50.352;19.390;2023-02-19T01:35:31;97378.59;;;4.68;100.00
50011;BME280;35899;50.352;19.390;2023-02-19T01:37:59;97377.92;;;4.67;100.00
50011;BME280;35899;50.352;19.390;2023-02-19T01:40:27;97377.16;;;4.69;100.00
50011;BME280;35899;50.352;19.390;2023-02-19T01:42:55;97372.10;;;4.70;100.00
50011;BME280;35899;50.352;19.390;2023-02-19T01:45:30;97363.91;;;4.69;100.00
50011;BME280;35899;50.352;19.390;2023-02-19T01:48:01;97369.47;;;4.68;100.00
50011;BME280;35899;50.352;19.390;2023-02-19T01:50:31;97361.48;;;4.67;100.00
50011;BME280;35899;50.352;19.390;2023-02-19T01:53:01;97359.96;;;4.67;100.00
50011;BME280;35899;50.352;19.390;2023-02-19T01:55:30;97359.31;;;4.66;100.00
50011;BME280;35899;50.352;19.390;2023-02-19T01:57:59;97355.00;;;4.67;100.00
50011;BME280;35899;50.352;19.390;2023-02-19T02:00:28;97351.75;;;4.67;100.00
50011;BME280;35899;50.352;19.390;2023-02-19T02:02:56;97349.72;;;4.66;100.00
50011;BME280;35899;50.352;19.390;2023-02-19T02:05:44;97348.81;;;4.67;100.00
50011;BME280;35899;50.352;19.390;2023-02-19T02:08:14;97343.40;;;4.66;100.00
50011;BME280;35899;50.352;19.390;2023-02-19T02:10:43;97341.50;;;4.66;100.00
50011;BME280;35899;50.352;19.390;2023-02-19T02:13:11;97336.18;;;4.66;100.00
50011;BME280;35899;50.352;19.390;2023-02-19T02:15:43;97330.98;;;4.67;100.00
50011;BME280;35899;50.352;19.390;2023-02-19T02:20:54;97336.42;;;4.68;100.00
50011;BME280;35899;50.352;19.390;2023-02-19T02:23:28;97334.19;;;4.68;100.00
50011;BME280;35899;50.352;19.390;2023-02-19T02:31:17;97332.80;;;4.68;100.00
50011;BME280;35899;50.352;19.390;2023-02-19T02:33:49;97334.11;;;4.69;100.00
50011;BME280;35899;50.352;19.390;2023-02-19T02:36:28;97327.27;;;4.73;100.00
50011;BME280;35899;50.352;19.390;2023-02-19T02:38:57;97326.31;;;4.74;100.00
50011;BME280;35899;50.352;19.390;2023-02-19T02:41:26;97327.38;;;4.74;100.00
50011;BME280;35899;50.352;19.390;2023-02-19T02:43:54;97324.67;;;4.73;100.00
50011;BME280;35899;50.352;19.390;2023-02-19T02:46:25;97327.39;;;4.73;100.00
50011;BME280;35899;50.352;19.390;2023-02-19T02:48:58;97323.44;;;4.73;100.00
50011;BME280;35899;50.352;19.390;2023-02-19T02:56:36;97314.29;;;4.75;100.00
50011;BME280;35899;50.352;19.390;2023-02-19T02:59:05;97314.98;;;4.75;100.00
50011;BME280;35899;50.352;19.390;2023-02-19T03:04:11;97311.15;;;4.76;100.00
50011;BME280;35899;50.352;19.390;2023-02-19T03:06:41;97306.48;;;4.76;100.00
50011;BME280;35899;50.352;19.390;2023-02-19T03:09:10;97299.38;;;4.77;100.00
50011;BME280;35899;50.352;19.390;2023-02-19T03:11:42;97296.40;;;4.79;100.00
50011;BME280;35899;50.352;19.390;2023-02-19T03:14:14;97295.98;;;4.80;100.00
50011;BME280;35899;50.352;19.390;2023-02-19T03:16:43;97296.27;;;4.81;100.00
50011;BME280;35899;50.352;19.390;2023-02-19T03:19:14;97290.55;;;4.82;100.00
50011;BME280;35899;50.352;19.390;2023-02-19T03:21:42;97290.84;;;4.83;100.00
50011;BME280;35899;50.352;19.390;2023-02-19T03:24:12;97287.38;;;4.84;100.00
50011;BME280;35899;50.352;19.390;2023-02-19T03:26:41;97285.98;;;4.84;100.00
50011;BME280;35899;50.352;19.390;2023-02-19T03:29:10;97286.48;;;4.84;100.00
50011;BME280;35899;50.352;19.390;2023-02-19T03:31:40;97281.48;;;4.85;100.00
50011;BME280;35899;50.352;19.390;2023-02-19T03:34:11;97283.02;;;4.85;100.00
50011;BME280;35899;50.352;19.390;2023-02-19T03:36:47;97283.04;;;4.84;100.00
50011;BME280;35899;50.352;19.390;2023-02-19T03:39:19;97282.16;;;4.85;100.00
50011;BME280;35899;50.352;19.390;2023-02-19T03:44:43;97277.91;;;4.84;100.00
50011;BME280;35899;50.352;19.390;2023-02-19T03:47:14;97290.87;;;4.85;100.00
50011;BME280;35899;50.352;19.390;2023-02-19T03:50:06;97292.51;;;4.87;100.00
50011;BME280;35899;50.352;19.390;2023-02-19T03:52:44;97297.08;;;4.88;100.00
50011;BME280;35899;50.352;19.390;2023-02-19T03:55:29;97299.10;;;4.88;100.00
50011;BME280;35899;50.352;19.390;2023-02-19T04:00:52;97294.04;;;4.90;100.00
50011;BME280;35899;50.352;19.390;2023-02-19T04:03:29;97289.73;;;4.90;100.00
50011;BME280;35899;50.352;19.390;2023-02-19T04:06:00;97289.70;;;4.91;100.00
50011;BME280;35899;50.352;19.390;2023-02-19T04:08:29;97283.64;;;4.92;100.00
50011;BME280;35899;50.352;19.390;2023-02-19T04:11:02;97283.15;;;4.92;100.00
50011;BME280;35899;50.352;19.390;2023-02-19T04:13:41;97278.20;;;4.91;100.00
50011;BME280;35899;50.352;19.390;2023-02-19T04:16:12;97270.84;;;4.91;100.00
50011;BME280;35899;50.352;19.390;2023-02-19T04:18:42;97271.55;;;4.90;100.00
50011;BME280;35899;50.352;19.390;2023-02-19T04:21:10;97270.09;;;4.89;100.00
50011;BME280;35899;50.352;19.390;2023-02-19T04:23:40;97271.69;;;4.88;100.00
50011;BME280;35899;50.352;19.390;2023-02-19T04:26:09;97270.95;;;4.86;100.00
50011;BME280;35899;50.352;19.390;2023-02-19T04:28:38;97275.23;;;4.86;100.00
50011;BME280;35899;50.352;19.390;2023-02-19T04:31:06;97274.92;;;4.85;100.00
50011;BME280;35899;50.352;19.390;2023-02-19T04:33:33;97275.45;;;4.85;100.00
50011;BME280;35899;50.352;19.390;2023-02-19T04:36:01;97269.02;;;4.84;100.00
50011;BME280;35899;50.352;19.390;2023-02-19T04:38:29;97269.66;;;4.82;100.00
50011;BME280;35899;50.352;19.390;2023-02-19T04:40:57;97267.16;;;4.81;100.00
50011;BME280;35899;50.352;19.390;2023-02-19T04:43:25;97267.38;;;4.80;100.00
50011;BME280;35899;50.352;19.390;2023-02-19T04:45:52;97268.23;;;4.80;100.00
50011;BME280;35899;50.352;19.390;2023-02-19T04:48:20;97260.75;;;4.79;100.00
50011;BME280;35899;50.352;19.390;2023-02-19T04:50:48;97262.71;;;4.77;100.00
50011;BME280;35899;50.352;19.390;2023-02-19T04:53:16;97266.30;;;4.77;100.00
50011;BME280;35899;50.352;19.390;2023-02-19T04:55:44;97269.04;;;4.78;100.00
50011;BME280;35899;50.352;19.390;2023-02-19T04:58:11;97267.73;;;4.76;100.00
50011;BME280;35899;50.352;19.390;2023-02-19T05:00:39;97257.89;;;4.75;100.00
50011;BME280;35899;50.352;19.390;2023-02-19T05:03:07;97247.28;;;4.75;100.00
50011;BME280;35899;50.352;19.390;2023-02-19T05:05:34;97239.48;;;4.73;100.00
50011;BME280;35899;50.352;19.390;2023-02-19T05:08:02;97226.80;;;4.73;100.00
50011;BME280;35899;50.352;19.390;2023-02-19T05:10:30;97221.27;;;4.74;100.00
50011;BME280;35899;50.352;19.390;2023-02-19T05:12:58;97219.63;;;4.73;100.00
50011;BME280;35899;50.352;19.390;2023-02-19T05:15:25;97212.29;;;4.72;100.00
50011;BME280;35899;50.352;19.390;2023-02-19T05:17:53;97210.56;;;4.72;100.00
50011;BME280;35899;50.352;19.390;2023-02-19T05:20:21;97212.11;;;4.72;100.00
50011;BME280;35899;50.352;19.390;2023-02-19T05:22:49;97213.98;;;4.72;100.00
50011;BME280;35899;50.352;19.390;2023-02-19T05:25:17;97212.36;;;4.74;100.00
50011;BME280;35899;50.352;19.390;2023-02-19T05:27:45;97213.98;;;4.75;100.00
50011;BME280;35899;50.352;19.390;2023-02-19T05:30:12;97219.27;;;4.76;100.00
50011;BME280;35899;50.352;19.390;2023-02-19T05:32:41;97219.77;;;4.76;100.00
50011;BME280;35899;50.352;19.390;2023-02-19T05:35:08;97218.02;;;4.77;100.00
50011;BME280;35899;50.352;19.390;2023-02-19T05:37:36;97217.79;;;4.78;100.00
50011;BME280;35899;50.352;19.390;2023-02-19T05:40:04;97217.08;;;4.78;100.00
50011;BME280;35899;50.352;19.390;2023-02-19T05:42:32;97210.05;;;4.78;100.00
50011;BME280;35899;50.352;19.390;2023-02-19T05:44:59;97211.55;;;4.79;100.00
50011;BME280;35899;50.352;19.390;2023-02-19T05:47:28;97214.39;;;4.80;100.00
50011;BME280;35899;50.352;19.390;2023-02-19T05:49:56;97220.17;;;4.81;100.00
50011;BME280;35899;50.352;19.390;2023-02-19T05:52:24;97209.48;;;4.82;100.00
50011;BME280;35899;50.352;19.390;2023-02-19T05:54:51;97204.84;;;4.82;100.00
50011;BME280;35899;50.352;19.390;2023-02-19T05:57:19;97204.98;;;4.83;100.00
50011;BME280;35899;50.352;19.390;2023-02-19T05:59:47;97210.76;;;4.84;100.00
50011;BME280;35899;50.352;19.390;2023-02-19T06:02:14;97212.04;;;4.85;100.00
50011;BME280;35899;50.352;19.390;2023-02-19T06:04:42;97198.78;;;4.86;100.00
50011;BME280;35899;50.352;19.390;2023-02-19T06:07:10;97190.95;;;4.88;100.00
50011;BME280;35899;50.352;19.390;2023-02-19T06:09:38;97200.77;;;4.90;100.00
50011;BME280;35899;50.352;19.390;2023-02-19T06:12:06;97200.20;;;4.91;100.00
50011;BME280;35899;50.352;19.390;2023-02-19T06:14:33;97195.50;;;4.92;100.00
50011;BME280;35899;50.352;19.390;2023-02-19T06:17:01;97190.67;;;4.93;100.00
50011;BME280;35899;50.352;19.390;2023-02-19T06:19:29;97192.95;;;4.95;100.00
50011;BME280;35899;50.352;19.390;2023-02-19T06:21:57;97194.11;;;4.96;100.00
50011;BME280;35899;50.352;19.390;2023-02-19T06:24:25;97199.53;;;4.97;100.00
50011;BME280;35899;50.352;19.390;2023-02-19T06:26:52;97196.55;;;4.98;100.00
50011;BME280;35899;50.352;19.390;2023-02-19T06:29:20;97195.92;;;5.00;100.00
50011;BME280;35899;50.352;19.390;2023-02-19T06:31:48;97197.46;;;5.00;100.00
50011;BME280;35899;50.352;19.390;2023-02-19T06:34:16;97201.41;;;5.00;100.00
50011;BME280;35899;50.352;19.390;2023-02-19T06:36:44;97199.71;;;5.00;100.00
50011;BME280;35899;50.352;19.390;2023-02-19T06:39:11;97194.70;;;5.00;100.00
50011;BME280;35899;50.352;19.390;2023-02-19T06:41:39;97193.73;;;5.02;100.00
50011;BME280;35899;50.352;19.390;2023-02-19T06:44:07;97185.91;;;5.03;100.00
50011;BME280;35899;50.352;19.390;2023-02-19T06:46:35;97183.00;;;5.06;100.00
50011;BME280;35899;50.352;19.390;2023-02-19T06:49:03;97181.59;;;5.10;100.00
50011;BME280;35899;50.352;19.390;2023-02-19T06:51:31;97178.61;;;5.14;100.00
50011;BME280;35899;50.352;19.390;2023-02-19T06:53:59;97176.29;;;5.19;100.00
50011;BME280;35899;50.352;19.390;2023-02-19T06:56:31;97174.45;;;5.23;100.00
50011;BME280;35899;50.352;19.390;2023-02-19T06:59:00;97175.88;;;5.28;100.00
50011;BME280;35899;50.352;19.390;2023-02-19T07:01:29;97173.38;;;5.33;100.00
50011;BME280;35899;50.352;19.390;2023-02-19T07:03:57;97175.02;;;5.37;100.00
50011;BME280;35899;50.352;19.390;2023-02-19T07:06:25;97172.00;;;5.41;100.00
50011;BME280;35899;50.352;19.390;2023-02-19T07:08:53;97175.47;;;5.43;100.00
50011;BME280;35899;50.352;19.390;2023-02-19T07:11:21;97180.67;;;5.45;100.00
50011;BME280;35899;50.352;19.390;2023-02-19T07:13:53;97168.35;;;5.50;100.00
50011;BME280;35899;50.352;19.390;2023-02-19T07:16:21;97170.92;;;5.56;100.00
50011;BME280;35899;50.352;19.390;2023-02-19T07:18:49;97166.77;;;5.62;100.00
50011;BME280;35899;50.352;19.390;2023-02-19T07:21:17;97169.48;;;5.65;100.00
50011;BME280;35899;50.352;19.390;2023-02-19T07:23:45;97173.34;;;5.69;100.00
50011;BME280;35899;50.352;19.390;2023-02-19T07:26:14;97171.91;;;5.76;100.00
50011;BME280;35899;50.352;19.390;2023-02-19T07:28:43;97172.45;;;5.83;100.00
50011;BME280;35899;50.352;19.390;2023-02-19T07:31:11;97167.61;;;5.90;100.00
50011;BME280;35899;50.352;19.390;2023-02-19T07:33:41;97163.92;;;5.94;100.00
50011;BME280;35899;50.352;19.390;2023-02-19T07:36:09;97163.59;;;5.97;100.00
50011;BME280;35899;50.352;19.390;2023-02-19T07:38:38;97171.59;;;5.98;100.00
50011;BME280;35899;50.352;19.390;2023-02-19T07:41:05;97169.36;;;5.95;100.00
50011;BME280;35899;50.352;19.390;2023-02-19T07:43:34;97168.34;;;5.89;100.00
50011;BME280;35899;50.352;19.390;2023-02-19T07:46:10;97165.00;;;5.84;100.00
50011;BME280;35899;50.352;19.390;2023-02-19T07:48:38;97164.21;;;5.81;100.00
50011;BME280;35899;50.352;19.390;2023-02-19T07:51:09;97164.89;;;5.81;100.00
50011;BME280;35899;50.352;19.390;2023-02-19T07:53:38;97168.02;;;5.80;100.00
50011;BME280;35899;50.352;19.390;2023-02-19T07:56:06;97170.42;;;5.78;100.00
50011;BME280;35899;50.352;19.390;2023-02-19T07:58:35;97167.01;;;5.75;100.00
50011;BME280;35899;50.352;19.390;2023-02-19T08:01:09;97157.90;;;5.69;100.00
50011;BME280;35899;50.352;19.390;2023-02-19T08:03:37;97153.83;;;5.66;100.00
50011;BME280;35899;50.352;19.390;2023-02-19T08:06:06;97153.80;;;5.64;100.00
50011;BME280;35899;50.352;19.390;2023-02-19T08:08:34;97155.76;;;5.62;100.00
50011;BME280;35899;50.352;19.390;2023-02-19T08:11:03;97148.21;;;5.60;100.00
50011;BME280;35899;50.352;19.390;2023-02-19T08:13:31;97147.22;;;5.59;100.00
50011;BME280;35899;50.352;19.390;2023-02-19T08:18:46;97144.11;;;5.62;100.00
50011;BME280;35899;50.352;19.390;2023-02-19T08:21:14;97152.02;;;5.62;100.00
50011;BME280;35899;50.352;19.390;2023-02-19T08:23:42;97156.64;;;5.64;100.00
50011;BME280;35899;50.352;19.390;2023-02-19T08:26:10;97161.08;;;5.68;100.00
50011;BME280;35899;50.352;19.390;2023-02-19T08:28:38;97165.84;;;5.68;100.00
50011;BME280;35899;50.352;19.390;2023-02-19T08:31:06;97170.11;;;5.69;100.00
50011;BME280;35899;50.352;19.390;2023-02-19T08:33:36;97172.79;;;5.70;100.00
50011;BME280;35899;50.352;19.390;2023-02-19T08:36:05;97174.92;;;5.72;100.00
50011;BME280;35899;50.352;19.390;2023-02-19T08:38:36;97177.20;;;5.71;100.00
50011;BME280;35899;50.352;19.390;2023-02-19T08:41:09;97187.00;;;5.68;100.00
50011;BME280;35899;50.352;19.390;2023-02-19T08:43:37;97184.64;;;5.62;100.00
50011;BME280;35899;50.352;19.390;2023-02-19T08:46:05;97181.52;;;5.59;100.00
50011;BME280;35899;50.352;19.390;2023-02-19T08:48:34;97178.60;;;5.62;100.00
50011;BME280;35899;50.352;19.390;2023-02-19T08:51:03;97179.17;;;5.64;100.00
50011;BME280;35899;50.352;19.390;2023-02-19T08:53:31;97178.48;;;5.67;100.00
50011;BME280;35899;50.352;19.390;2023-02-19T08:56:05;97178.92;;;5.71;100.00
50011;BME280;35899;50.352;19.390;2023-02-19T08:58:33;97181.67;;;5.73;100.00
50011;BME280;35899;50.352;19.390;2023-02-19T09:01:02;97181.05;;;5.75;100.00
50011;BME280;35899;50.352;19.390;2023-02-19T09:03:30;97178.90;;;5.77;100.00
50011;BME280;35899;50.352;19.390;2023-02-19T09:05:58;97180.77;;;5.74;100.00
50011;BME280;35899;50.352;19.390;2023-02-19T09:08:26;97181.61;;;5.74;100.00
50011;BME280;35899;50.352;19.390;2023-02-19T09:11:01;97183.69;;;5.74;100.00
50011;BME280;35899;50.352;19.390;2023-02-19T09:13:29;97181.83;;;5.71;100.00
50011;BME280;35899;50.352;19.390;2023-02-19T09:15:57;97185.19;;;5.70;100.00
50011;BME280;35899;50.352;19.390;2023-02-19T09:18:25;97182.13;;;5.66;100.00
50011;BME280;35899;50.352;19.390;2023-02-19T09:20:53;97188.13;;;5.61;100.00
50011;BME280;35899;50.352;19.390;2023-02-19T09:23:21;97191.80;;;5.57;100.00
50011;BME280;35899;50.352;19.390;2023-02-19T09:25:55;97190.74;;;5.52;100.00
50011;BME280;35899;50.352;19.390;2023-02-19T09:28:23;97198.05;;;5.44;100.00
50011;BME280;35899;50.352;19.390;2023-02-19T09:30:51;97194.29;;;5.38;100.00
50011;BME280;35899;50.352;19.390;2023-02-19T09:33:19;97198.77;;;5.33;100.00
50011;BME280;35899;50.352;19.390;2023-02-19T09:35:47;97201.63;;;5.30;100.00
50011;BME280;35899;50.352;19.390;2023-02-19T09:38:15;97197.96;;;5.26;100.00
50011;BME280;35899;50.352;19.390;2023-02-19T09:40:43;97201.15;;;5.24;100.00
50011;BME280;35899;50.352;19.390;2023-02-19T09:43:14;97202.58;;;5.29;100.00
50011;BME280;35899;50.352;19.390;2023-02-19T09:45:43;97206.30;;;5.30;100.00
50011;BME280;35899;50.352;19.390;2023-02-19T09:48:11;97206.61;;;5.33;100.00
50011;BME280;35899;50.352;19.390;2023-02-19T09:50:43;97212.19;;;5.35;100.00
50011;BME280;35899;50.352;19.390;2023-02-19T09:53:19;97226.19;;;5.27;100.00
50011;BME280;35899;50.352;19.390;2023-02-19T09:55:50;97239.38;;;5.02;100.00
50011;BME280;35899;50.352;19.390;2023-02-19T09:58:28;97247.79;;;4.78;100.00
50011;BME280;35899;50.352;19.390;2023-02-19T10:00:57;97249.41;;;4.64;100.00
50011;BME280;35899;50.352;19.390;2023-02-19T10:03:31;97262.77;;;4.55;100.00
50011;BME280;35899;50.352;19.390;2023-02-19T10:06:01;97266.11;;;4.44;100.00
50011;BME280;35899;50.352;19.390;2023-02-19T10:08:32;97271.68;;;4.33;100.00
50011;BME280;35899;50.352;19.390;2023-02-19T10:11:01;97274.24;;;4.24;100.00
50011;BME280;35899;50.352;19.390;2023-02-19T10:13:36;97277.40;;;4.20;100.00
50011;BME280;35899;50.352;19.390;2023-02-19T10:16:06;97284.31;;;4.19;100.00
50011;BME280;35899;50.352;19.390;2023-02-19T10:18:39;97287.64;;;4.14;100.00
50011;BME280;35899;50.352;19.390;2023-02-19T10:21:09;97290.05;;;4.07;100.00
50011;BME280;35899;50.352;19.390;2023-02-19T10:23:39;97291.77;;;4.02;100.00
50011;BME280;35899;50.352;19.390;2023-02-19T10:26:08;97297.56;;;3.98;100.00
50011;BME280;35899;50.352;19.390;2023-02-19T10:28:36;97291.63;;;3.91;100.00
50011;BME280;35899;50.352;19.390;2023-02-19T10:31:06;97300.58;;;3.90;100.00
50011;BME280;35899;50.352;19.390;2023-02-19T10:33:49;97302.37;;;3.95;100.00
50011;BME280;35899;50.352;19.390;2023-02-19T10:38:48;97306.23;;;3.93;100.00
50011;BME280;35899;50.352;19.390;2023-02-19T10:41:17;97317.48;;;3.97;100.00
50011;BME280;35899;50.352;19.390;2023-02-19T10:43:53;97319.97;;;4.08;100.00
50011;BME280;35899;50.352;19.390;2023-02-19T10:46:30;97323.77;;;4.24;100.00
50011;BME280;35899;50.352;19.390;2023-02-19T10:49:11;97323.85;;;4.25;100.00
50011;BME280;35899;50.352;19.390;2023-02-19T10:51:44;97330.22;;;4.12;100.00
50011;BME280;35899;50.352;19.390;2023-02-19T10:54:19;97328.88;;;4.12;100.00
50011;BME280;35899;50.352;19.390;2023-02-19T10:56:52;97326.59;;;4.22;100.00
50011;BME280;35899;50.352;19.390;2023-02-19T10:59:23;97330.92;;;4.34;100.00
50011;BME280;35899;50.352;19.390;2023-02-19T11:04:26;97331.67;;;4.36;100.00
50011;BME280;35899;50.352;19.390;2023-02-19T11:06:55;97335.88;;;4.47;100.00
50011;BME280;35899;50.352;19.390;2023-02-19T11:09:27;97342.88;;;4.50;100.00
50011;BME280;35899;50.352;19.390;2023-02-19T11:11:55;97344.73;;;4.32;100.00
50011;BME280;35899;50.352;19.390;2023-02-19T11:14:24;97350.79;;;4.21;100.00
50011;BME280;35899;50.352;19.390;2023-02-19T11:16:56;97353.23;;;4.20;100.00
50011;BME280;35899;50.352;19.390;2023-02-19T11:21:52;97359.09;;;4.10;100.00
50011;BME280;35899;50.352;19.390;2023-02-19T11:24:25;97360.08;;;3.98;100.00
50011;BME280;35899;50.352;19.390;2023-02-19T11:26:53;97362.36;;;3.87;100.00
50011;BME280;35899;50.352;19.390;2023-02-19T11:29:22;97367.10;;;3.78;100.00
50011;BME280;35899;50.352;19.390;2023-02-19T11:31:50;97370.07;;;3.70;100.00
50011;BME280;35899;50.352;19.390;2023-02-19T11:36:48;97381.81;;;3.98;100.00
50011;BME280;35899;50.352;19.390;2023-02-19T11:39:23;97384.55;;;4.17;100.00
50011;BME280;35899;50.352;19.390;2023-02-19T11:49:42;97386.42;;;4.08;100.00
50011;BME280;35899;50.352;19.390;2023-02-19T11:52:22;97386.90;;;3.96;100.00
50011;BME280;35899;50.352;19.390;2023-02-19T11:55:09;97390.17;;;3.85;100.00
50011;BME280;35899;50.352;19.390;2023-02-19T11:57:41;97393.36;;;3.86;100.00
50011;BME280;35899;50.352;19.390;2023-02-19T12:00:21;97404.25;;;3.81;100.00
50011;BME280;35899;50.352;19.390;2023-02-19T12:02:57;97409.52;;;3.75;100.00
50011;BME280;35899;50.352;19.390;2023-02-19T12:08:28;97416.52;;;3.75;100.00
50011;BME280;35899;50.352;19.390;2023-02-19T12:26:42;97439.19;;;3.60;100.00
50011;BME280;35899;50.352;19.390;2023-02-19T12:31:51;97447.82;;;3.69;100.00
50011;BME280;35899;50.352;19.390;2023-02-19T12:37:22;97443.90;;;3.79;100.00
50011;BME280;35899;50.352;19.390;2023-02-19T12:39:56;97446.27;;;4.03;100.00
50011;BME280;35899;50.352;19.390;2023-02-19T12:45:06;97444.58;;;5.11;100.00
50011;BME280;35899;50.352;19.390;2023-02-19T12:47:38;97442.89;;;5.32;100.00
50011;BME280;35899;50.352;19.390;2023-02-19T12:50:16;97444.60;;;5.63;100.00
50011;BME280;35899;50.352;19.390;2023-02-19T12:52:47;97447.29;;;5.76;100.00
50011;BME280;35899;50.352;19.390;2023-02-19T12:55:27;97452.27;;;5.76;100.00
50011;BME280;35899;50.352;19.390;2023-02-19T12:57:56;97455.53;;;5.61;100.00
50011;BME280;35899;50.352;19.390;2023-02-19T13:00:27;97464.02;;;5.35;100.00
50011;BME280;35899;50.352;19.390;2023-02-19T13:03:13;97466.53;;;5.15;100.00
50011;BME280;35899;50.352;19.390;2023-02-19T13:08:33;97475.38;;;4.62;100.00
50011;BME280;35899;50.352;19.390;2023-02-19T13:11:16;97479.30;;;4.33;100.00
50011;BME280;35899;50.352;19.390;2023-02-19T13:16:14;97487.00;;;4.07;100.00
50011;BME280;35899;50.352;19.390;2023-02-19T13:18:49;97493.52;;;4.13;100.00
50011;BME280;35899;50.352;19.390;2023-02-19T13:21:19;97497.02;;;4.11;100.00
50011;BME280;35899;50.352;19.390;2023-02-19T13:23:48;97497.60;;;4.14;100.00
50011;BME280;35899;50.352;19.390;2023-02-19T13:32:39;97513.73;;;3.79;100.00
50011;BME280;35899;50.352;19.390;2023-02-19T13:37:08;97531.15;;;3.58;100.00
50011;BME280;35899;50.352;19.390;2023-02-19T13:39:43;97527.27;;;3.64;100.00
50011;BME280;35899;50.352;19.390;2023-02-19T13:42:18;97525.64;;;3.94;100.00
50011;BME280;35899;50.352;19.390;2023-02-19T13:44:50;97526.77;;;4.33;100.00
50011;BME280;35899;50.352;19.390;2023-02-19T13:50:16;97541.42;;;4.18;100.00
50011;BME280;35899;50.352;19.390;2023-02-19T13:52:44;97540.05;;;4.04;100.00
50011;BME280;35899;50.352;19.390;2023-02-19T14:00:49;97552.75;;;3.71;100.00
50011;BME280;35899;50.352;19.390;2023-02-19T14:06:04;97566.70;;;3.30;100.00
50011;BME280;35899;50.352;19.390;2023-02-19T14:08:46;97565.84;;;3.15;100.00
50011;BME280;35899;50.352;19.390;2023-02-19T14:11:14;97576.01;;;3.02;100.00
50011;BME280;35899;50.352;19.390;2023-02-19T14:18:57;97584.04;;;3.09;100.00
50011;BME280;35899;50.352;19.390;2023-02-19T14:21:35;97588.60;;;3.15;100.00
50011;BME280;35899;50.352;19.390;2023-02-19T14:24:04;97591.77;;;3.13;100.00
50011;BME280;35899;50.352;19.390;2023-02-19T14:26:32;97595.42;;;3.11;100.00
50011;BME280;35899;50.352;19.390;2023-02-19T14:29:01;97602.27;;;3.07;100.00
50011;BME280;35899;50.352;19.390;2023-02-19T14:31:30;97607.91;;;2.96;100.00
50011;BME280;35899;50.352;19.390;2023-02-19T14:39:24;97618.00;;;2.80;100.00
50011;BME280;35899;50.352;19.390;2023-02-19T14:41:57;97617.68;;;2.76;100.00
50011;BME280;35899;50.352;19.390;2023-02-19T14:44:30;97624.31;;;2.68;100.00
50011;BME280;35899;50.352;19.390;2023-02-19T14:49:36;97627.68;;;2.58;100.00
50011;BME280;35899;50.352;19.390;2023-02-19T14:52:10;97631.83;;;2.52;100.00